KFFT

Capital City Airport

Frankfort, Kentucky, USA
METAR KFFT 241213Z AUTO 03006KT 8SM OVC004 12/11 A3006 RMK AO2 RAE1155 P0000 T01220106
Observed Flight Rules
Feb-24 @ 12:13 UTC (11 minutes ago) Instrument Flight Rules
Wind Visibility Clouds
30° at 6 knots 8 miles
  • Overcast at 400' AGL
Temperatures Readings Precipitation
Current 12°C / 54°F
Dewpoint 11°C / 52°F
Humidity 94%
Altimeter 30.06" Hg
Pressure 1018 hPa
Elevation 236
Current Rain 0.005
METAR KFFT 241213Z AUTO 03006KT 8SM OVC004 12/11 A3006 RMK AO2 RAE1155 P0000 T01220106
Observed Flight Rules
Feb-24 @ 12:13 UTC
(11 minutes ago)
LIFR
Wind Visibility
30° at 6 knots 8 miles
Clouds
  • Overcast at 400' AGL
Temperature Dewpoint
12°C / 54°F 11°C / 52°F
Humidity Altimeter Pressure
94% 30.06" Hg 1018 hPa
Current Rain
0.005